createdAt,value
2017-06-29T00:00:51.965Z,0
2017-06-29T00:01:54.672Z,0
2017-06-29T00:02:57.025Z,0
2017-06-29T00:03:59.053Z,0
2017-06-29T00:05:01.081Z,0
2017-06-29T00:06:03.102Z,0
2017-06-29T00:07:05.122Z,0
2017-06-29T00:08:07.138Z,0
2017-06-29T00:09:09.151Z,0
2017-06-29T00:10:11.196Z,0
2017-06-29T00:11:13.553Z,0
2017-06-29T00:12:15.576Z,0
2017-06-29T00:13:17.592Z,0
2017-06-29T00:14:19.969Z,0
2017-06-29T00:15:21.987Z,0
2017-06-29T00:16:24.349Z,0
2017-06-29T00:17:26.372Z,0
2017-06-29T00:18:28.380Z,0
2017-06-29T00:19:30.397Z,0
2017-06-29T00:20:32.417Z,0
2017-06-29T00:21:34.431Z,0
2017-06-29T00:22:36.448Z,0
2017-06-29T00:23:38.807Z,0
2017-06-29T00:24:40.823Z,0
2017-06-29T00:25:42.836Z,0
2017-06-29T00:26:44.849Z,0
2017-06-29T00:27:46.881Z,0
2017-06-29T00:28:48.897Z,0
2017-06-29T00:29:50.916Z,0
2017-06-29T00:30:52.935Z,0
2017-06-29T00:31:54.955Z,0
2017-06-29T00:32:57.650Z,0
2017-06-29T00:33:59.663Z,0
2017-06-29T00:35:01.685Z,0
2017-06-29T00:36:03.703Z,0
2017-06-29T00:37:05.716Z,0
2017-06-29T00:38:07.735Z,0
2017-06-29T00:39:09.756Z,0
2017-06-29T00:40:11.776Z,0
2017-06-29T00:41:44.205Z,0
2017-06-29T00:42:46.567Z,0
2017-06-29T00:43:49.280Z,0
2017-06-29T00:44:51.295Z,0
2017-06-29T00:45:53.313Z,0
2017-06-29T00:46:55.330Z,0
2017-06-29T00:47:57.351Z,0
2017-06-29T00:48:59.369Z,0
2017-06-29T00:50:01.386Z,0
2017-06-29T00:51:03.408Z,0
2017-06-29T00:52:05.434Z,0
2017-06-29T00:53:07.451Z,0
2017-06-29T00:54:09.470Z,0
2017-06-29T00:55:11.485Z,0
2017-06-29T00:56:13.497Z,0
2017-06-29T00:57:15.524Z,0
2017-06-29T00:58:17.542Z,0
2017-06-29T00:59:19.894Z,0
2017-06-29T01:00:21.912Z,0
2017-06-29T01:01:23.930Z,0
2017-06-29T01:02:25.950Z,0
2017-06-29T01:03:27.970Z,0
2017-06-29T01:04:29.992Z,0
2017-06-29T01:05:32.014Z,0
2017-06-29T01:06:34.032Z,0
2017-06-29T01:07:36.385Z,0
2017-06-29T01:08:38.406Z,0
2017-06-29T01:09:40.425Z,0
2017-06-29T01:10:42.444Z,0
2017-06-29T01:11:44.466Z,0
2017-06-29T01:12:46.493Z,0
2017-06-29T01:13:49.527Z,0
2017-06-29T01:14:51.543Z,0
2017-06-29T01:15:53.569Z,0
2017-06-29T01:16:55.585Z,0
2017-06-29T01:17:57.597Z,0
2017-06-29T01:18:59.613Z,0
2017-06-29T01:20:01.628Z,0
2017-06-29T01:21:03.986Z,0
2017-06-29T01:22:06.000Z,0
2017-06-29T01:23:08.019Z,0
2017-06-29T01:24:10.046Z,0
2017-06-29T01:25:12.062Z,0
2017-06-29T01:26:14.083Z,0
2017-06-29T01:27:16.443Z,0
2017-06-29T01:28:19.816Z,0
2017-06-29T01:29:21.839Z,0
2017-06-29T01:30:23.892Z,0
2017-06-29T01:31:25.908Z,0
2017-06-29T01:32:27.936Z,0
2017-06-29T01:33:30.296Z,0
2017-06-29T01:34:32.650Z,0
2017-06-29T01:35:35.016Z,0
2017-06-29T01:36:37.029Z,0
2017-06-29T01:37:39.050Z,0
2017-06-29T01:38:41.060Z,0
2017-06-29T01:39:43.086Z,0
2017-06-29T01:40:45.104Z,0
2017-06-29T01:41:47.117Z,0
2017-06-29T01:42:49.134Z,0
2017-06-29T01:43:51.153Z,0
2017-06-29T01:44:53.167Z,0
2017-06-29T01:45:55.187Z,0
2017-06-29T01:46:57.535Z,0
2017-06-29T01:47:59.563Z,0
2017-06-29T01:49:01.577Z,0
2017-06-29T01:50:03.593Z,0
2017-06-29T01:51:05.616Z,0
2017-06-29T01:52:07.639Z,0
2017-06-29T01:53:09.654Z,0
2017-06-29T01:54:12.024Z,0
2017-06-29T01:55:14.042Z,0
2017-06-29T01:56:16.058Z,0
2017-06-29T01:57:18.405Z,0
2017-06-29T01:58:20.427Z,0
2017-06-29T01:59:22.446Z,0
2017-06-29T02:00:24.459Z,0
2017-06-29T02:01:26.811Z,0
2017-06-29T02:02:28.825Z,0
2017-06-29T02:03:31.180Z,0
2017-06-29T02:04:33.544Z,0
2017-06-29T02:05:35.565Z,0
2017-06-29T02:06:37.586Z,0
2017-06-29T02:07:39.602Z,0
2017-06-29T02:08:41.619Z,0
2017-06-29T02:09:43.977Z,0
2017-06-29T02:10:45.992Z,0
2017-06-29T02:11:48.009Z,0
2017-06-29T02:12:50.034Z,0
2017-06-29T02:13:52.053Z,0
2017-06-29T02:14:54.065Z,0
2017-06-29T02:15:56.084Z,0
2017-06-29T02:16:58.095Z,0
2017-06-29T02:18:00.451Z,0
2017-06-29T02:19:02.472Z,0
2017-06-29T02:20:04.493Z,0
2017-06-29T02:21:06.863Z,0
2017-06-29T02:22:08.877Z,0
2017-06-29T02:23:10.894Z,0
2017-06-29T02:24:12.913Z,0
2017-06-29T02:25:14.925Z,0
2017-06-29T02:26:16.944Z,0
2017-06-29T02:27:18.965Z,0
2017-06-29T02:28:20.988Z,0
2017-06-29T02:29:23.009Z,0
2017-06-29T02:30:25.363Z,0
2017-06-29T02:31:27.388Z,0
2017-06-29T02:32:29.407Z,0
2017-06-29T02:33:31.426Z,0
2017-06-29T02:34:33.789Z,0
2017-06-29T02:35:35.814Z,0
2017-06-29T02:36:37.834Z,0
2017-06-29T02:37:39.854Z,0
2017-06-29T02:38:41.879Z,0
2017-06-29T02:39:44.241Z,0
2017-06-29T02:40:46.258Z,0
2017-06-29T02:41:48.282Z,0
2017-06-29T02:42:50.309Z,0
2017-06-29T02:43:52.321Z,1
2017-06-29T02:44:54.345Z,1
2017-06-29T02:45:56.364Z,1
2017-06-29T02:46:58.388Z,1
2017-06-29T02:48:00.749Z,1
2017-06-29T02:49:02.769Z,1
2017-06-29T02:50:04.785Z,1
2017-06-29T02:51:06.808Z,1
2017-06-29T02:52:08.828Z,1
2017-06-29T02:53:10.861Z,1
2017-06-29T02:54:12.882Z,1
2017-06-29T02:55:14.903Z,1
2017-06-29T02:56:16.926Z,1
2017-06-29T02:57:18.943Z,2
2017-06-29T02:58:20.966Z,2
2017-06-29T02:59:22.990Z,2
2017-06-29T03:00:25.013Z,2
2017-06-29T03:01:27.035Z,2
2017-06-29T03:02:29.047Z,2
2017-06-29T03:03:31.067Z,3
2017-06-29T03:04:33.091Z,3
2017-06-29T03:05:35.114Z,3
2017-06-29T03:06:37.474Z,3
2017-06-29T03:07:39.831Z,4
2017-06-29T03:08:41.852Z,4
2017-06-29T03:09:43.874Z,4
2017-06-29T03:10:46.230Z,4
2017-06-29T03:11:48.255Z,5
2017-06-29T03:12:50.945Z,5
2017-06-29T03:13:52.966Z,6
2017-06-29T03:14:54.986Z,6
2017-06-29T03:15:57.006Z,7
2017-06-29T03:16:59.368Z,8
2017-06-29T03:18:01.388Z,8
2017-06-29T03:19:03.415Z,8
2017-06-29T03:20:05.438Z,9
2017-06-29T03:21:07.457Z,9
2017-06-29T03:22:09.482Z,9
2017-06-29T03:23:11.517Z,10
2017-06-29T03:24:13.875Z,10
2017-06-29T03:25:15.896Z,10
2017-06-29T03:26:17.916Z,10
2017-06-29T03:27:19.941Z,10
2017-06-29T03:28:21.966Z,10
2017-06-29T03:29:24.324Z,11
2017-06-29T03:30:26.340Z,11
2017-06-29T03:31:28.359Z,10
2017-06-29T03:32:30.384Z,10
2017-06-29T03:33:32.411Z,10
2017-06-29T03:34:34.434Z,11
2017-06-29T03:35:36.457Z,11
2017-06-29T03:36:38.482Z,11
2017-06-29T03:37:40.839Z,11
2017-06-29T03:38:42.857Z,11
2017-06-29T03:39:44.870Z,12
2017-06-29T03:40:46.894Z,13
2017-06-29T03:41:48.916Z,14
2017-06-29T03:42:50.939Z,14
2017-06-29T03:43:52.962Z,14
2017-06-29T03:44:54.983Z,14
2017-06-29T03:45:57.345Z,14
2017-06-29T03:46:59.707Z,14
2017-06-29T03:48:01.727Z,15
2017-06-29T03:49:04.087Z,16
2017-06-29T03:50:06.110Z,16
2017-06-29T03:51:08.135Z,16
2017-06-29T03:52:10.160Z,16
2017-06-29T03:53:12.537Z,16
2017-06-29T03:54:14.557Z,17
2017-06-29T03:55:16.582Z,17
2017-06-29T03:56:18.598Z,17
2017-06-29T03:57:20.625Z,17
2017-06-29T03:58:22.645Z,18
2017-06-29T03:59:24.663Z,18
2017-06-29T04:00:27.359Z,19
2017-06-29T04:01:29.377Z,19
2017-06-29T04:02:31.402Z,18
2017-06-29T04:03:34.100Z,18
2017-06-29T04:04:36.122Z,17
2017-06-29T04:05:38.482Z,17
2017-06-29T04:06:40.501Z,18
2017-06-29T04:07:42.521Z,18
2017-06-29T04:08:44.549Z,18
2017-06-29T04:09:46.572Z,18
2017-06-29T04:10:48.636Z,19
2017-06-29T04:11:50.658Z,20
2017-06-29T04:12:52.685Z,20
2017-06-29T04:13:54.713Z,20
2017-06-29T04:14:56.750Z,20
2017-06-29T04:15:58.781Z,21
2017-06-29T04:17:00.802Z,21
2017-06-29T04:18:02.818Z,20
2017-06-29T04:19:04.844Z,20
2017-06-29T04:20:06.863Z,21
2017-06-29T04:21:08.881Z,22
2017-06-29T04:22:10.898Z,22
2017-06-29T04:23:12.915Z,22
2017-06-29T04:24:14.934Z,21
2017-06-29T04:25:16.952Z,21
2017-06-29T04:26:19.307Z,21
2017-06-29T04:27:21.341Z,20
2017-06-29T04:28:23.359Z,20
2017-06-29T04:29:25.725Z,20
2017-06-29T04:30:27.749Z,20
2017-06-29T04:31:30.123Z,20
2017-06-29T04:32:32.154Z,20
2017-06-29T04:33:34.185Z,21
2017-06-29T04:34:36.586Z,20
2017-06-29T04:35:38.635Z,20
2017-06-29T04:36:40.647Z,20
2017-06-29T04:37:42.682Z,19
2017-06-29T04:38:45.041Z,18
2017-06-29T04:39:47.405Z,18
2017-06-29T04:40:49.423Z,18
2017-06-29T04:41:51.789Z,18
2017-06-29T04:42:54.148Z,18
2017-06-29T04:43:56.176Z,17
2017-06-29T04:44:58.536Z,17
2017-06-29T04:46:00.552Z,17
2017-06-29T04:47:02.582Z,19
2017-06-29T04:48:04.970Z,19
2017-06-29T04:49:07.334Z,20
2017-06-29T04:50:09.366Z,20
2017-06-29T04:51:11.391Z,21
2017-06-29T04:52:13.411Z,23
2017-06-29T04:53:15.432Z,23
2017-06-29T04:54:17.789Z,23
2017-06-29T04:55:19.806Z,23
2017-06-29T04:56:21.824Z,24
2017-06-29T04:57:23.841Z,23
2017-06-29T04:58:25.863Z,24
2017-06-29T04:59:27.886Z,22
2017-06-29T05:00:29.900Z,23
2017-06-29T05:01:32.264Z,26
2017-06-29T05:02:34.285Z,29
2017-06-29T05:03:36.296Z,27
2017-06-29T05:04:38.322Z,27
2017-06-29T05:05:40.341Z,30
2017-06-29T05:06:42.365Z,35
2017-06-29T05:07:44.382Z,37
2017-06-29T05:08:46.401Z,35
2017-06-29T05:09:48.433Z,34
2017-06-29T05:10:50.457Z,33
2017-06-29T05:11:52.482Z,35
2017-06-29T05:12:55.180Z,35
2017-06-29T05:13:57.204Z,38
2017-06-29T05:14:59.573Z,34
2017-06-29T05:16:01.591Z,37
2017-06-29T05:17:03.615Z,39
2017-06-29T05:18:05.633Z,42
2017-06-29T05:19:07.651Z,46
2017-06-29T05:20:09.675Z,49
2017-06-29T05:21:11.698Z,53
2017-06-29T05:22:13.721Z,49
2017-06-29T05:23:15.743Z,44
2017-06-29T05:24:17.791Z,43
2017-06-29T05:25:19.812Z,45
2017-06-29T05:26:21.835Z,46
2017-06-29T05:27:23.858Z,46
2017-06-29T05:28:25.878Z,44
2017-06-29T05:29:27.906Z,40
2017-06-29T05:30:29.933Z,37
2017-06-29T05:31:31.987Z,38
2017-06-29T05:32:34.007Z,39
2017-06-29T05:33:36.366Z,36
2017-06-29T05:34:38.391Z,33
2017-06-29T05:35:40.419Z,34
2017-06-29T05:36:42.441Z,37
2017-06-29T05:37:44.466Z,47
2017-06-29T05:38:46.485Z,57
2017-06-29T05:39:48.506Z,55
2017-06-29T05:40:50.530Z,48
2017-06-29T05:41:52.557Z,46
2017-06-29T05:42:54.914Z,47
2017-06-29T05:43:56.946Z,47
2017-06-29T05:44:58.965Z,49
2017-06-29T05:46:00.987Z,57
2017-06-29T05:47:03.364Z,62
2017-06-29T05:48:05.391Z,73
2017-06-29T05:49:07.414Z,82
2017-06-29T05:50:09.430Z,74
2017-06-29T05:51:11.450Z,65
2017-06-29T05:52:13.474Z,61
2017-06-29T05:53:15.493Z,59
2017-06-29T05:54:17.849Z,59
2017-06-29T05:55:19.871Z,62
2017-06-29T05:56:21.889Z,68
2017-06-29T05:57:23.916Z,70
2017-06-29T05:58:26.619Z,71
2017-06-29T05:59:28.646Z,71
2017-06-29T06:00:30.682Z,66
2017-06-29T06:01:33.051Z,66
2017-06-29T06:02:35.411Z,70
2017-06-29T06:03:37.436Z,69
2017-06-29T06:04:39.455Z,70
2017-06-29T06:05:41.812Z,77
2017-06-29T06:06:43.837Z,86
2017-06-29T06:07:45.865Z,94
2017-06-29T06:08:47.939Z,96
2017-06-29T06:09:50.051Z,91
2017-06-29T06:10:53.574Z,93
2017-06-29T06:11:57.058Z,93
2017-06-29T06:13:01.086Z,90
2017-06-29T06:14:04.020Z,86
2017-06-29T06:15:07.595Z,84
2017-06-29T06:16:12.596Z,83
2017-06-29T06:17:16.796Z,84
2017-06-29T06:18:20.021Z,86
2017-06-29T06:19:23.202Z,88
2017-06-29T06:20:28.279Z,94
2017-06-29T06:21:32.366Z,100
2017-06-29T06:22:37.420Z,99
2017-06-29T06:23:41.841Z,95
2017-06-29T06:24:45.629Z,89
2017-06-29T06:25:48.977Z,90
2017-06-29T06:26:52.496Z,91
2017-06-29T06:27:54.997Z,89
2017-06-29T06:28:59.355Z,91
2017-06-29T06:30:03.145Z,96
2017-06-29T06:31:06.043Z,106
2017-06-29T06:32:10.197Z,100
2017-06-29T06:33:14.480Z,95
2017-06-29T06:34:17.367Z,101
2017-06-29T06:35:23.206Z,101
2017-06-29T06:36:26.910Z,105
2017-06-29T06:37:31.471Z,105
2017-06-29T06:38:34.961Z,106
2017-06-29T06:39:40.315Z,105
2017-06-29T06:40:44.794Z,100
2017-06-29T06:41:49.519Z,97
2017-06-29T06:42:53.187Z,98
2017-06-29T06:43:55.438Z,101
2017-06-29T06:45:00.412Z,110
2017-06-29T06:46:02.905Z,122
2017-06-29T06:47:05.291Z,122
2017-06-29T06:48:07.313Z,118
2017-06-29T06:49:09.342Z,123
2017-06-29T06:50:11.410Z,124
2017-06-29T06:51:13.432Z,124
2017-06-29T06:52:15.455Z,124
2017-06-29T06:53:17.480Z,124
2017-06-29T06:54:19.847Z,120
2017-06-29T06:55:21.868Z,123
2017-06-29T06:56:23.897Z,119
2017-06-29T06:57:25.934Z,120
2017-06-29T06:58:27.964Z,111
2017-06-29T06:59:29.982Z,110
2017-06-29T07:00:32.010Z,114
2017-06-29T07:01:34.082Z,118
2017-06-29T07:02:36.112Z,134
2017-06-29T07:03:38.471Z,129
2017-06-29T07:04:40.517Z,117
2017-06-29T07:05:42.540Z,113
2017-06-29T07:06:45.147Z,116
2017-06-29T07:07:47.183Z,126
2017-06-29T07:08:49.210Z,146
2017-06-29T07:09:51.252Z,157
2017-06-29T07:10:53.281Z,156
2017-06-29T07:11:56.602Z,145
2017-06-29T07:12:58.626Z,142
2017-06-29T07:14:00.656Z,144
2017-06-29T07:15:03.026Z,141
2017-06-29T07:16:05.055Z,144
2017-06-29T07:17:07.421Z,147
2017-06-29T07:18:09.441Z,142
2017-06-29T07:19:11.471Z,133
2017-06-29T07:20:13.491Z,135
2017-06-29T07:21:16.205Z,141
2017-06-29T07:22:18.232Z,141
2017-06-29T07:23:20.254Z,142
2017-06-29T07:24:22.323Z,148
2017-06-29T07:25:24.348Z,153
2017-06-29T07:26:26.377Z,148
2017-06-29T07:27:28.409Z,147
2017-06-29T07:28:30.432Z,142
2017-06-29T07:29:32.462Z,144
2017-06-29T07:30:34.483Z,146
2017-06-29T07:31:36.502Z,139
2017-06-29T07:32:38.532Z,123
2017-06-29T07:33:40.557Z,118
2017-06-29T07:34:42.580Z,118
2017-06-29T07:35:44.604Z,119
2017-06-29T07:36:46.969Z,113
2017-06-29T07:37:49.689Z,111
2017-06-29T07:38:52.043Z,121
2017-06-29T07:39:54.077Z,122
2017-06-29T07:40:56.486Z,138
2017-06-29T07:41:58.509Z,163
2017-06-29T07:43:00.874Z,163
2017-06-29T07:44:02.904Z,156
2017-06-29T07:45:05.286Z,170
2017-06-29T07:46:07.314Z,144
2017-06-29T07:47:09.334Z,148
2017-06-29T07:48:11.364Z,118
2017-06-29T07:49:13.425Z,96
2017-06-29T07:50:15.452Z,95
2017-06-29T07:51:17.479Z,92
2017-06-29T07:52:19.541Z,107
2017-06-29T07:53:21.566Z,104
2017-06-29T07:54:23.594Z,106
2017-06-29T07:55:25.619Z,104
2017-06-29T07:56:27.645Z,113
2017-06-29T07:57:29.717Z,128
2017-06-29T07:58:31.745Z,137
2017-06-29T07:59:33.766Z,141
2017-06-29T08:00:35.795Z,134
2017-06-29T08:01:38.165Z,130
2017-06-29T08:02:40.188Z,129
2017-06-29T08:03:42.212Z,117
2017-06-29T08:04:44.242Z,118
2017-06-29T08:05:46.275Z,121
2017-06-29T08:06:48.303Z,121
2017-06-29T08:07:50.667Z,124
2017-06-29T08:08:52.698Z,139
2017-06-29T08:09:54.726Z,158
2017-06-29T08:10:56.747Z,166
2017-06-29T08:11:58.775Z,194
2017-06-29T08:13:00.801Z,227
2017-06-29T08:14:02.825Z,216
2017-06-29T08:15:05.201Z,225
2017-06-29T08:16:07.225Z,234
2017-06-29T08:17:09.929Z,249
2017-06-29T08:18:11.948Z,244
2017-06-29T08:19:13.972Z,226
2017-06-29T08:20:16.005Z,246
2017-06-29T08:21:18.034Z,223
2017-06-29T08:22:20.063Z,235
2017-06-29T08:23:22.096Z,221
2017-06-29T08:24:24.133Z,221
2017-06-29T08:25:26.164Z,251
2017-06-29T08:26:28.194Z,208
2017-06-29T08:27:30.552Z,193
2017-06-29T08:28:32.579Z,202
2017-06-29T08:29:34.611Z,205
2017-06-29T08:30:36.973Z,181
2017-06-29T08:31:39.038Z,196
2017-06-29T08:32:41.068Z,212
2017-06-29T08:33:43.096Z,226
2017-06-29T08:34:45.124Z,211
2017-06-29T08:35:47.143Z,191
2017-06-29T08:36:49.177Z,190
2017-06-29T08:37:51.204Z,204
2017-06-29T08:38:53.230Z,207
2017-06-29T08:39:55.260Z,191
2017-06-29T08:40:57.290Z,177
2017-06-29T08:41:59.328Z,186
2017-06-29T08:43:01.389Z,175
2017-06-29T08:44:03.764Z,203
2017-06-29T08:45:05.791Z,216
2017-06-29T08:46:07.816Z,182
2017-06-29T08:47:09.845Z,233
2017-06-29T08:48:11.874Z,248
2017-06-29T08:49:13.905Z,223
2017-06-29T08:50:15.929Z,242
2017-06-29T08:51:17.960Z,258
2017-06-29T08:52:19.985Z,287
2017-06-29T08:53:22.011Z,263
2017-06-29T08:54:24.042Z,248
2017-06-29T08:55:26.069Z,241
2017-06-29T08:56:28.094Z,247
2017-06-29T08:57:30.463Z,230
2017-06-29T08:58:32.509Z,235
2017-06-29T08:59:34.553Z,267
2017-06-29T09:00:36.920Z,290
2017-06-29T09:01:38.952Z,311
2017-06-29T09:02:40.984Z,256
2017-06-29T09:03:43.010Z,209
2017-06-29T09:04:45.037Z,201
2017-06-29T09:05:47.067Z,214
2017-06-29T09:06:49.100Z,242
2017-06-29T09:07:51.128Z,244
2017-06-29T09:08:53.153Z,294
2017-06-29T09:09:55.189Z,217
2017-06-29T09:10:57.216Z,185
2017-06-29T09:11:59.237Z,172
2017-06-29T09:13:01.268Z,171
2017-06-29T09:14:03.330Z,178
2017-06-29T09:15:05.356Z,181
2017-06-29T09:16:07.385Z,203
2017-06-29T09:17:09.414Z,222
2017-06-29T09:18:11.450Z,167
2017-06-29T09:19:13.476Z,137
2017-06-29T09:20:15.511Z,128
2017-06-29T09:21:17.540Z,123
2017-06-29T09:22:19.575Z,118
2017-06-29T09:23:21.602Z,120
2017-06-29T09:24:23.973Z,117
2017-06-29T09:25:26.006Z,128
2017-06-29T09:26:28.036Z,155
2017-06-29T09:27:30.404Z,176
2017-06-29T09:28:32.444Z,197
2017-06-29T09:29:34.473Z,182
2017-06-29T09:30:36.502Z,214
2017-06-29T09:31:38.526Z,272
2017-06-29T09:32:40.559Z,257
2017-06-29T09:33:42.584Z,236
2017-06-29T09:34:44.613Z,245
2017-06-29T09:35:46.648Z,312
2017-06-29T09:36:49.017Z,310
2017-06-29T09:37:51.048Z,415
2017-06-29T09:38:53.412Z,299
2017-06-29T09:39:55.445Z,215
2017-06-29T09:40:57.482Z,199
2017-06-29T09:41:59.509Z,239
2017-06-29T09:43:01.533Z,184
2017-06-29T09:44:03.561Z,164
2017-06-29T09:45:05.602Z,159
2017-06-29T09:46:07.631Z,148
2017-06-29T09:47:09.660Z,132
2017-06-29T09:48:11.691Z,132
2017-06-29T09:49:13.721Z,133
2017-06-29T09:50:15.756Z,140
2017-06-29T09:51:17.782Z,159
2017-06-29T09:52:20.148Z,169
2017-06-29T09:53:22.194Z,154
2017-06-29T09:54:24.226Z,141
2017-06-29T09:55:26.259Z,138
2017-06-29T09:56:28.288Z,142
2017-06-29T09:57:30.318Z,144
2017-06-29T09:58:32.684Z,156
2017-06-29T09:59:34.710Z,178
2017-06-29T10:00:36.741Z,173
2017-06-29T10:01:38.767Z,164
2017-06-29T10:02:40.794Z,139
2017-06-29T10:03:42.820Z,120
2017-06-29T10:04:44.852Z,112
2017-06-29T10:05:47.219Z,121
2017-06-29T10:06:49.582Z,135
2017-06-29T10:07:51.612Z,151
2017-06-29T10:08:53.649Z,167
2017-06-29T10:09:55.681Z,161
2017-06-29T10:10:57.707Z,150
2017-06-29T10:11:59.735Z,152
2017-06-29T10:13:01.776Z,161
2017-06-29T10:14:03.802Z,172
2017-06-29T10:15:05.833Z,182
2017-06-29T10:16:07.869Z,195
2017-06-29T10:17:10.239Z,208
2017-06-29T10:18:12.272Z,228
2017-06-29T10:19:14.304Z,251
2017-06-29T10:20:16.341Z,215
2017-06-29T10:21:18.367Z,203
2017-06-29T10:22:20.436Z,243
2017-06-29T10:23:22.475Z,294
2017-06-29T10:24:24.499Z,290
2017-06-29T10:25:26.525Z,278
2017-06-29T10:26:28.552Z,269
2017-06-29T10:27:30.930Z,277
2017-06-29T10:28:32.958Z,288
2017-06-29T10:29:34.992Z,290
2017-06-29T10:30:37.026Z,279
2017-06-29T10:31:39.057Z,264
2017-06-29T10:32:41.077Z,247
2017-06-29T10:33:43.446Z,221
2017-06-29T10:34:45.470Z,201
2017-06-29T10:35:47.500Z,191
2017-06-29T10:36:49.531Z,178
2017-06-29T10:37:51.566Z,170
2017-06-29T10:38:53.599Z,157
2017-06-29T10:39:55.622Z,166
2017-06-29T10:40:57.652Z,215
2017-06-29T10:42:00.034Z,339
2017-06-29T10:43:02.062Z,359
2017-06-29T10:44:04.092Z,267
2017-06-29T10:45:06.472Z,274
2017-06-29T10:46:08.500Z,455
2017-06-29T10:47:10.542Z,389
2017-06-29T10:48:12.565Z,382
2017-06-29T10:49:14.597Z,454
2017-06-29T10:50:16.625Z,274
2017-06-29T10:51:18.656Z,238
2017-06-29T10:52:21.033Z,180
2017-06-29T10:53:23.064Z,184
2017-06-29T10:54:25.091Z,219
2017-06-29T10:55:27.124Z,229
2017-06-29T10:56:30.217Z,249
2017-06-29T10:57:32.845Z,246
2017-06-29T10:58:34.978Z,258
2017-06-29T10:59:37.383Z,288
2017-06-29T11:00:39.416Z,426
2017-06-29T11:01:41.449Z,386
2017-06-29T11:02:43.482Z,278
2017-06-29T11:03:45.520Z,220
2017-06-29T11:04:47.553Z,203
2017-06-29T11:05:53.859Z,218
2017-06-29T11:07:01.809Z,206
2017-06-29T11:08:09.313Z,199
2017-06-29T11:09:19.248Z,215
2017-06-29T11:10:29.000Z,260
2017-06-29T11:11:37.406Z,253
2017-06-29T11:12:44.459Z,264
2017-06-29T11:13:47.259Z,305
2017-06-29T11:14:49.854Z,328
2017-06-29T11:15:54.034Z,376
2017-06-29T11:16:59.997Z,408
2017-06-29T11:18:09.872Z,387
2017-06-29T11:19:19.519Z,401
2017-06-29T11:20:26.715Z,579
2017-06-29T11:21:35.280Z,489
2017-06-29T11:22:44.215Z,341
2017-06-29T11:23:52.473Z,259
2017-06-29T11:24:59.036Z,231
2017-06-29T11:26:08.113Z,222
2017-06-29T11:27:16.235Z,218
2017-06-29T11:28:24.489Z,228
2017-06-29T11:29:33.519Z,298
2017-06-29T11:30:35.978Z,375
2017-06-29T11:31:38.018Z,382
2017-06-29T11:32:40.052Z,383
2017-06-29T11:33:42.083Z,407
2017-06-29T11:34:44.112Z,394
2017-06-29T11:35:46.149Z,375
2017-06-29T11:36:48.201Z,349
2017-06-29T11:37:50.232Z,310
2017-06-29T11:38:52.293Z,273
2017-06-29T11:39:54.318Z,246
2017-06-29T11:40:56.348Z,278
2017-06-29T11:41:58.402Z,268
2017-06-29T11:43:00.435Z,240
2017-06-29T11:44:02.800Z,217
2017-06-29T11:45:05.189Z,204
2017-06-29T11:46:07.222Z,203
2017-06-29T11:47:09.589Z,205
2017-06-29T11:48:11.622Z,204
2017-06-29T11:49:13.658Z,206
2017-06-29T11:50:15.688Z,215
2017-06-29T11:51:17.726Z,223
2017-06-29T11:52:19.757Z,227
2017-06-29T11:53:21.787Z,230
2017-06-29T11:54:23.819Z,237
2017-06-29T11:55:25.850Z,240
2017-06-29T11:56:27.889Z,244
2017-06-29T11:57:29.917Z,258
2017-06-29T11:58:31.988Z,251
2017-06-29T11:59:34.023Z,247
2017-06-29T12:00:36.076Z,201
2017-06-29T12:01:38.334Z,194
2017-06-29T12:02:40.371Z,192
2017-06-29T12:03:42.406Z,187
2017-06-29T12:04:44.454Z,174
2017-06-29T12:05:46.483Z,157
2017-06-29T12:06:48.861Z,161
2017-06-29T12:07:50.892Z,155
2017-06-29T12:08:52.925Z,147
2017-06-29T12:09:54.964Z,142
2017-06-29T12:10:56.995Z,137
2017-06-29T12:11:59.027Z,133
2017-06-29T12:13:01.056Z,127
2017-06-29T12:14:03.082Z,119
2017-06-29T12:15:05.811Z,111
2017-06-29T12:16:07.844Z,107
2017-06-29T12:17:09.876Z,107
2017-06-29T12:18:11.915Z,105
2017-06-29T12:19:13.945Z,107
2017-06-29T12:20:15.974Z,110
2017-06-29T12:21:18.008Z,114
2017-06-29T12:22:20.379Z,122
2017-06-29T12:23:22.406Z,131
2017-06-29T12:24:24.441Z,128
2017-06-29T12:25:26.469Z,123
2017-06-29T12:26:28.501Z,121
2017-06-29T12:27:30.534Z,125
2017-06-29T12:28:32.580Z,129
2017-06-29T12:29:34.611Z,132
2017-06-29T12:30:36.974Z,132
2017-06-29T12:31:39.004Z,127
2017-06-29T12:32:41.035Z,120
2017-06-29T12:33:43.062Z,115
2017-06-29T12:34:45.092Z,109
2017-06-29T12:35:47.162Z,99
2017-06-29T12:36:49.187Z,86
2017-06-29T12:37:51.213Z,77
2017-06-29T12:38:53.240Z,74
2017-06-29T12:39:55.262Z,74
2017-06-29T12:40:57.290Z,76
2017-06-29T12:41:59.318Z,81
2017-06-29T12:43:01.343Z,80
2017-06-29T12:44:03.711Z,67
2017-06-29T12:45:05.734Z,48
2017-06-29T12:46:07.799Z,41
2017-06-29T12:47:09.824Z,33
2017-06-29T12:48:12.202Z,27
2017-06-29T12:49:14.232Z,34
2017-06-29T12:50:16.598Z,39
2017-06-29T12:51:18.623Z,42
2017-06-29T12:52:20.667Z,50
2017-06-29T12:53:22.687Z,58
2017-06-29T12:54:24.716Z,59
2017-06-29T12:55:26.741Z,45
2017-06-29T12:56:28.765Z,44
2017-06-29T12:57:31.468Z,37
2017-06-29T12:58:33.519Z,32
2017-06-29T12:59:35.880Z,26
2017-06-29T13:00:37.906Z,24
2017-06-29T13:01:39.924Z,25
2017-06-29T13:02:41.953Z,23
2017-06-29T13:03:43.976Z,24
2017-06-29T13:04:47.199Z,32
2017-06-29T13:05:49.227Z,36
2017-06-29T13:06:51.251Z,41
2017-06-29T13:07:53.274Z,43
2017-06-29T13:08:55.294Z,44
2017-06-29T13:09:57.320Z,52
2017-06-29T13:10:59.685Z,44
2017-06-29T13:12:01.704Z,45
2017-06-29T13:13:03.734Z,46
2017-06-29T13:14:06.450Z,44
2017-06-29T13:15:08.822Z,43
2017-06-29T13:16:10.847Z,40
2017-06-29T13:17:12.874Z,31
2017-06-29T13:18:14.898Z,31
2017-06-29T13:19:16.954Z,36
2017-06-29T13:20:19.316Z,35
2017-06-29T13:21:21.682Z,30
2017-06-29T13:22:23.846Z,29
2017-06-29T13:23:26.301Z,31
2017-06-29T13:24:28.337Z,27
2017-06-29T13:25:30.358Z,30
2017-06-29T13:26:32.726Z,32
2017-06-29T13:27:34.759Z,26
2017-06-29T13:28:37.115Z,30
2017-06-29T13:29:39.147Z,29
2017-06-29T13:30:41.544Z,31
2017-06-29T13:31:43.569Z,27
2017-06-29T13:33:43.397Z,26
2017-06-29T13:34:45.445Z,31
2017-06-29T13:35:47.827Z,25
2017-06-29T13:36:49.876Z,32
2017-06-29T13:37:51.921Z,39
2017-06-29T13:38:53.967Z,33
2017-06-29T13:39:56.352Z,31
2017-06-29T13:40:58.393Z,37
2017-06-29T13:42:00.449Z,38
2017-06-29T13:43:03.681Z,42
2017-06-29T13:44:05.827Z,42
2017-06-29T13:45:07.872Z,46
2017-06-29T13:46:09.912Z,49
2017-06-29T13:47:11.965Z,53
2017-06-29T13:48:14.354Z,51
2017-06-29T13:49:16.397Z,49
2017-06-29T13:50:18.438Z,40
2017-06-29T13:51:20.482Z,43
2017-06-29T13:52:22.557Z,44
2017-06-29T13:53:24.607Z,39
2017-06-29T13:54:26.643Z,37
2017-06-29T13:55:28.719Z,38
2017-06-29T13:56:30.761Z,31
2017-06-29T13:57:33.154Z,29
2017-06-29T13:58:35.552Z,28
2017-06-29T13:59:37.585Z,28
2017-06-29T14:00:39.635Z,28
2017-06-29T14:01:41.671Z,32
2017-06-29T14:02:43.712Z,37
2017-06-29T14:03:45.751Z,32
2017-06-29T14:04:47.791Z,34
2017-06-29T14:05:49.832Z,35
2017-06-29T14:06:51.872Z,56
2017-06-29T14:07:53.906Z,55
2017-06-29T14:08:55.948Z,45
2017-06-29T14:09:57.990Z,41
2017-06-29T14:11:00.030Z,48
2017-06-29T14:12:02.079Z,51
2017-06-29T14:13:04.131Z,46
2017-06-29T14:14:06.191Z,57
2017-06-29T14:15:08.249Z,58
2017-06-29T14:16:10.652Z,53
2017-06-29T14:17:13.051Z,55
2017-06-29T14:18:15.478Z,56
2017-06-29T14:19:17.524Z,54
2017-06-29T14:20:19.573Z,51
2017-06-29T14:21:21.973Z,48
2017-06-29T14:22:24.414Z,44
2017-06-29T14:23:26.475Z,46
2017-06-29T14:24:28.522Z,41
2017-06-29T14:25:30.932Z,31
2017-06-29T14:26:33.004Z,40
2017-06-29T14:27:35.043Z,45
2017-06-29T14:28:37.085Z,36
2017-06-29T14:29:39.121Z,36
2017-06-29T14:30:41.497Z,48
2017-06-29T14:31:43.885Z,39
2017-06-29T14:32:45.928Z,33
2017-06-29T14:33:47.970Z,29
2017-06-29T14:34:50.010Z,29
2017-06-29T14:35:52.047Z,26
2017-06-29T14:36:54.087Z,29
2017-06-29T14:37:56.126Z,29
2017-06-29T14:38:58.169Z,24
2017-06-29T14:40:00.212Z,22
2017-06-29T14:41:02.257Z,25
2017-06-29T14:42:04.300Z,18
2017-06-29T14:43:06.331Z,24
2017-06-29T14:44:08.377Z,26
2017-06-29T14:45:10.414Z,24